createdAt,value
2018-05-23T00:01:40.563Z,99.40
2018-05-23T00:05:43.288Z,99.60
2018-05-23T00:09:46.055Z,99.60
2018-05-23T00:13:48.738Z,99.90
2018-05-23T00:17:51.554Z,99.60
2018-05-23T00:21:55.038Z,99.60
2018-05-23T00:25:58.809Z,99.60
2018-05-23T00:30:01.584Z,99.60
2018-05-23T00:34:04.345Z,99.60
2018-05-23T00:38:07.040Z,99.60
2018-05-23T00:42:09.828Z,99.60
2018-05-23T00:46:13.406Z,99.60
2018-05-23T00:50:16.119Z,99.60
2018-05-23T00:54:19.643Z,99.70
2018-05-23T00:58:22.533Z,99.60
2018-05-23T01:02:25.256Z,99.70
2018-05-23T01:06:28.717Z,99.70
2018-05-23T01:10:31.433Z,99.60
2018-05-23T01:14:34.206Z,99.70
2018-05-23T01:18:36.914Z,99.70
2018-05-23T01:22:39.765Z,99.70
2018-05-23T01:26:42.487Z,99.70
2018-05-23T01:30:45.306Z,99.80
2018-05-23T01:34:48.004Z,99.80
2018-05-23T01:38:50.766Z,99.80
2018-05-23T01:42:53.555Z,99.90
2018-05-23T01:46:56.361Z,99.90
2018-05-23T01:50:59.142Z,99.90
2018-05-23T01:55:01.900Z,99.90
2018-05-23T01:59:04.676Z,99.90
2018-05-23T02:03:07.407Z,99.90
2018-05-23T02:07:10.159Z,99.90
2018-05-23T02:11:12.905Z,99.90
2018-05-23T02:15:15.749Z,99.90
2018-05-23T02:19:18.449Z,99.90
2018-05-23T02:23:21.169Z,99.90
2018-05-23T02:27:23.881Z,99.90
2018-05-23T02:31:26.648Z,99.90
2018-05-23T02:35:29.384Z,99.90
2018-05-23T02:39:32.144Z,99.90
2018-05-23T02:43:34.834Z,99.90
2018-05-23T02:47:37.549Z,99.90
2018-05-23T02:51:41.003Z,99.90
2018-05-23T02:55:44.541Z,99.90
2018-05-23T02:59:47.259Z,99.90
2018-05-23T03:03:49.957Z,99.90
2018-05-23T03:07:52.779Z,99.90
2018-05-23T03:11:55.492Z,99.90
2018-05-23T03:15:58.206Z,99.90
2018-05-23T03:20:01.783Z,99.90
2018-05-23T03:24:04.539Z,99.90
2018-05-23T03:28:07.229Z,99.90
2018-05-23T03:32:10.003Z,99.90
2018-05-23T03:36:13.501Z,99.90
2018-05-23T03:40:16.213Z,99.90
2018-05-23T03:44:19.694Z,99.90
2018-05-23T03:48:22.499Z,99.90
2018-05-23T03:52:25.294Z,99.90
2018-05-23T03:56:28.039Z,99.90
2018-05-23T04:00:42.700Z,99.90
2018-05-23T04:04:57.302Z,99.90
2018-05-23T04:09:01.269Z,99.90
2018-05-23T04:13:04.825Z,99.90
2018-05-23T04:17:07.550Z,99.90
2018-05-23T04:21:10.331Z,99.90
2018-05-23T04:25:13.036Z,99.90
2018-05-23T04:29:15.827Z,99.90
2018-05-23T04:33:18.677Z,99.90
2018-05-23T04:37:22.211Z,99.90
2018-05-23T04:41:24.932Z,99.90
2018-05-23T04:45:27.872Z,99.90
2018-05-23T04:49:30.586Z,99.90
2018-05-23T04:53:34.108Z,99.90
2018-05-23T04:57:37.659Z,99.90
2018-05-23T05:01:40.401Z,99.90
2018-05-23T05:05:44.009Z,99.90
2018-05-23T05:09:46.701Z,99.90
2018-05-23T05:13:49.427Z,99.90
2018-05-23T05:17:52.164Z,99.90
2018-05-23T05:21:55.705Z,99.90
2018-05-23T05:25:58.409Z,99.90
2018-05-23T05:30:01.221Z,99.90
2018-05-23T05:34:04.041Z,99.90
2018-05-23T05:38:06.800Z,99.70
2018-05-23T05:42:09.517Z,99.20
2018-05-23T05:46:12.987Z,98.80
2018-05-23T05:50:20.241Z,98.80
2018-05-23T05:54:22.944Z,98.70
2018-05-23T05:58:25.644Z,97.80
2018-05-23T06:02:28.414Z,97.50
2018-05-23T06:06:31.959Z,94.90
2018-05-23T06:10:34.649Z,94.90
2018-05-23T06:14:37.344Z,94.30
2018-05-23T06:18:40.075Z,93.50
2018-05-23T06:22:43.635Z,93.60
2018-05-23T06:26:46.421Z,93.60
2018-05-23T06:30:49.384Z,93.40
2018-05-23T06:34:52.106Z,92.40
2018-05-23T06:38:54.813Z,91.80
2018-05-23T06:42:57.500Z,91.60
2018-05-23T06:47:00.214Z,92.10
2018-05-23T06:51:03.791Z,91.80
2018-05-23T06:55:06.503Z,91.70
2018-05-23T06:59:09.283Z,91.20
2018-05-23T07:03:12.007Z,90.90
2018-05-23T07:07:21.141Z,86.30
2018-05-23T07:11:23.993Z,86.90
2018-05-23T07:15:26.711Z,85.10
2018-05-23T07:19:29.430Z,86.70
2018-05-23T07:23:32.276Z,83.80
2018-05-23T07:27:34.994Z,83.70
2018-05-23T07:31:37.716Z,83.00
2018-05-23T07:35:40.464Z,78.90
2018-05-23T07:39:43.149Z,82.40
2018-05-23T07:43:46.639Z,77.90
2018-05-23T07:47:49.400Z,77.80
2018-05-23T07:51:52.109Z,72.80
2018-05-23T07:55:54.853Z,70.80
2018-05-23T07:59:58.441Z,71.80
2018-05-23T08:04:01.132Z,71.70
2018-05-23T08:08:03.884Z,71.30
2018-05-23T08:12:06.646Z,70.20
2018-05-23T08:16:10.129Z,68.30
2018-05-23T08:20:14.355Z,67.70
2018-05-23T08:24:19.109Z,67.30
2018-05-23T08:28:22.000Z,67.20
2018-05-23T08:32:24.713Z,65.40
2018-05-23T08:36:27.534Z,62.50
2018-05-23T08:40:30.295Z,65.30
2018-05-23T08:44:33.018Z,64.80
2018-05-23T08:48:35.829Z,61.20
2018-05-23T08:52:38.629Z,58.90
2018-05-23T08:56:42.152Z,55.50
2018-05-23T09:00:44.933Z,55.40
2018-05-23T09:04:48.577Z,55.30
2018-05-23T09:08:51.296Z,55.30
2018-05-23T09:12:54.064Z,56.30
2018-05-23T09:16:56.845Z,53.10
2018-05-23T09:21:00.327Z,53.80
2018-05-23T09:25:03.913Z,52.90
2018-05-23T09:29:06.658Z,52.90
2018-05-23T09:33:09.421Z,49.60
2018-05-23T09:37:12.138Z,49.60
2018-05-23T09:41:14.912Z,49.10
2018-05-23T09:45:17.610Z,50.80
2018-05-23T09:49:20.326Z,44.80
2018-05-23T09:53:23.054Z,46.20
2018-05-23T09:57:26.543Z,48.40
2018-05-23T10:01:29.356Z,48.80
2018-05-23T10:05:32.174Z,47.30
2018-05-23T10:09:34.892Z,45.20
2018-05-23T10:13:37.657Z,43.40
2018-05-23T10:17:41.133Z,42.10
2018-05-23T10:21:44.681Z,41.70
2018-05-23T10:25:48.201Z,38.30
2018-05-23T10:29:51.797Z,42.30
2018-05-23T10:33:55.287Z,41.40
2018-05-23T10:37:57.997Z,41.40
2018-05-23T10:42:00.701Z,40.80
2018-05-23T10:46:03.473Z,43.20
2018-05-23T10:50:06.195Z,40.40
2018-05-23T10:54:08.946Z,38.50
2018-05-23T10:58:11.653Z,37.90
2018-05-23T11:02:14.392Z,42.30
2018-05-23T11:06:17.112Z,41.60
2018-05-23T11:10:20.603Z,44.20
2018-05-23T11:14:23.326Z,44.20
2018-05-23T11:18:26.849Z,41.40
2018-05-23T11:22:29.571Z,41.40
2018-05-23T11:26:33.176Z,41.50
2018-05-23T11:30:35.958Z,39.90
2018-05-23T11:34:39.462Z,42.80
2018-05-23T11:38:42.945Z,38.90
2018-05-23T11:42:45.695Z,39.10
2018-05-23T11:46:48.419Z,41.10
2018-05-23T11:50:51.127Z,38.90
2018-05-23T11:54:53.934Z,36.80
2018-05-23T11:58:56.676Z,33.40
2018-05-23T12:02:59.416Z,33.90
2018-05-23T12:07:02.137Z,34.70
2018-05-23T12:11:04.880Z,38.00
2018-05-23T12:15:07.829Z,36.40
2018-05-23T12:19:10.673Z,35.20
2018-05-23T12:23:14.827Z,37.30
2018-05-23T12:27:17.769Z,37.30
2018-05-23T12:31:22.068Z,37.90
2018-05-23T12:35:31.666Z,35.40
2018-05-23T12:39:48.908Z,38.40
2018-05-23T12:43:53.068Z,40.40
2018-05-23T12:48:04.018Z,44.50
2018-05-23T12:56:55.949Z,48.30
2018-05-23T13:01:01.342Z,46.80
2018-05-23T13:13:34.329Z,46.30
2018-05-23T13:17:37.101Z,44.30
2018-05-23T13:21:39.844Z,37.90
2018-05-23T13:25:43.495Z,33.90
2018-05-23T13:29:47.049Z,37.70
2018-05-23T13:33:49.789Z,37.50
2018-05-23T13:37:53.542Z,33.20
2018-05-23T13:41:56.421Z,32.70
2018-05-23T13:46:00.272Z,30.70
2018-05-23T13:50:03.405Z,30.80
2018-05-23T13:54:06.994Z,27.30
2018-05-23T13:58:09.779Z,29.80
2018-05-23T14:02:13.367Z,29.00
2018-05-23T14:06:16.339Z,29.00
2018-05-23T14:10:19.090Z,31.30
2018-05-23T14:14:23.924Z,36.50
2018-05-23T14:18:27.499Z,39.10
2018-05-23T14:22:30.230Z,38.90
2018-05-23T14:26:32.942Z,41.90
2018-05-23T14:30:36.543Z,50.40
2018-05-23T14:34:39.400Z,50.40
2018-05-23T14:38:42.292Z,51.20
2018-05-23T14:42:45.132Z,54.70
2018-05-23T14:46:48.137Z,56.50
2018-05-23T14:50:51.106Z,54.90
2018-05-23T14:54:54.622Z,58.30
2018-05-23T14:58:57.402Z,58.20
2018-05-23T15:03:00.358Z,57.90
2018-05-23T15:07:03.079Z,59.60
2018-05-23T15:11:06.576Z,56.40
2018-05-23T15:15:09.984Z,56.30
2018-05-23T15:19:12.676Z,56.70
2018-05-23T15:23:15.550Z,56.40
2018-05-23T15:27:18.286Z,47.70
2018-05-23T15:31:21.055Z,44.90
2018-05-23T15:35:23.928Z,42.90
2018-05-23T15:39:26.681Z,44.60
2018-05-23T15:43:30.179Z,55.80
2018-05-23T15:47:32.944Z,55.90
2018-05-23T15:51:35.651Z,71.00
2018-05-23T15:55:38.368Z,74.10
2018-05-23T15:59:41.081Z,79.40
2018-05-23T16:03:44.688Z,91.20
2018-05-23T16:07:47.878Z,91.10
2018-05-23T16:11:50.695Z,92.60
2018-05-23T16:15:55.070Z,93.50
2018-05-23T16:19:57.787Z,93.40
2018-05-23T16:24:00.497Z,94.10
2018-05-23T16:28:03.451Z,94.80
2018-05-23T16:32:06.211Z,96.60
2018-05-23T16:36:09.697Z,94.60
2018-05-23T16:40:12.421Z,94.20
2018-05-23T16:44:15.414Z,94.00
2018-05-23T16:48:18.156Z,94.90
2018-05-23T16:52:21.845Z,95.10
2018-05-23T16:56:24.637Z,95.10
2018-05-23T17:00:27.661Z,94.70
2018-05-23T17:04:31.605Z,95.10
2018-05-23T17:08:34.416Z,95.10
2018-05-23T17:12:38.176Z,95.10
2018-05-23T17:16:40.795Z,96.10
2018-05-23T17:20:44.693Z,95.20
2018-05-23T17:24:47.603Z,95.20
2018-05-23T17:28:50.403Z,95.20
2018-05-23T17:32:53.198Z,95.50
2018-05-23T17:36:56.001Z,95.10
2018-05-23T17:40:59.996Z,95.50
2018-05-23T17:45:03.043Z,95.50
2018-05-23T17:49:06.650Z,95.30
2018-05-23T17:53:11.818Z,95.20
2018-05-23T17:57:14.962Z,95.20
2018-05-23T18:01:17.952Z,96.40
2018-05-23T18:05:21.432Z,96.60
2018-05-23T18:09:24.520Z,96.80
2018-05-23T18:13:27.828Z,96.10
2018-05-23T18:17:30.896Z,96.40
2018-05-23T18:21:33.693Z,96.40
2018-05-23T18:25:36.801Z,96.50
2018-05-23T18:29:39.971Z,96.50
2018-05-23T18:33:42.921Z,96.80
2018-05-23T18:37:46.052Z,97.10
2018-05-23T18:41:48.801Z,97.60
2018-05-23T18:45:51.795Z,98.30
2018-05-23T18:49:54.840Z,98.60
2018-05-23T18:53:57.698Z,98.60
2018-05-23T18:58:00.511Z,98.60
2018-05-23T19:02:03.504Z,98.50
2018-05-23T19:06:06.448Z,98.70
2018-05-23T19:10:09.176Z,99.10
2018-05-23T19:14:12.806Z,99.30
2018-05-23T19:18:16.273Z,99.40
2018-05-23T19:22:19.433Z,99.40
2018-05-23T19:26:23.182Z,98.90
2018-05-23T19:30:26.108Z,99.00
2018-05-23T19:34:29.040Z,99.20
2018-05-23T19:38:32.981Z,99.30
2018-05-23T19:42:35.812Z,99.30
2018-05-23T19:46:39.573Z,99.30
2018-05-23T19:50:42.572Z,99.80
2018-05-23T19:54:45.513Z,99.60
2018-05-23T19:58:48.379Z,99.60
2018-05-23T20:02:52.204Z,99.90
2018-05-23T20:06:56.658Z,99.90
2018-05-23T20:11:00.191Z,99.90
2018-05-23T20:15:03.475Z,99.90
2018-05-23T20:19:09.285Z,99.90
2018-05-23T20:23:15.547Z,99.90
2018-05-23T20:27:23.798Z,99.90
2018-05-23T20:31:30.354Z,99.90
2018-05-23T20:35:38.246Z,99.90
2018-05-23T20:39:44.673Z,99.90
2018-05-23T20:43:52.910Z,99.90
2018-05-23T20:48:01.064Z,99.90
2018-05-23T20:52:07.730Z,99.90
2018-05-23T20:56:14.436Z,99.90
2018-05-23T21:00:21.694Z,99.90
2018-05-23T21:04:29.299Z,99.90
2018-05-23T21:08:37.086Z,99.90
2018-05-23T21:12:44.360Z,99.90
2018-05-23T21:16:51.682Z,99.90
2018-05-23T21:20:59.945Z,99.90
2018-05-23T21:25:06.359Z,99.90
2018-05-23T21:29:13.488Z,99.90
2018-05-23T21:33:20.237Z,99.90
2018-05-23T21:37:27.343Z,99.90
2018-05-23T21:41:34.557Z,99.90
2018-05-23T21:45:43.275Z,99.90
2018-05-23T21:49:49.195Z,99.90
2018-05-23T21:53:57.571Z,99.90
2018-05-23T21:58:03.364Z,99.90
2018-05-23T22:02:10.293Z,99.90
2018-05-23T22:06:16.371Z,99.90
2018-05-23T22:10:23.693Z,99.90
2018-05-23T22:14:30.649Z,99.90
2018-05-23T22:18:37.053Z,99.90
2018-05-23T22:22:44.399Z,99.90
2018-05-23T22:26:50.513Z,99.90
2018-05-23T22:30:53.877Z,99.90
2018-05-23T22:34:56.738Z,99.90
2018-05-23T22:38:59.550Z,99.90
2018-05-23T22:43:02.369Z,99.90
2018-05-23T22:47:06.338Z,99.90
2018-05-23T22:51:09.277Z,99.90
2018-05-23T22:55:12.549Z,99.90
2018-05-23T22:59:15.669Z,99.90
2018-05-23T23:03:19.784Z,99.90
2018-05-23T23:07:22.742Z,99.90
2018-05-23T23:11:26.213Z,99.90
2018-05-23T23:15:29.917Z,99.90
2018-05-23T23:19:32.945Z,99.90
2018-05-23T23:23:35.871Z,99.90
2018-05-23T23:27:39.000Z,99.90
2018-05-23T23:31:42.233Z,99.90
2018-05-23T23:35:45.319Z,99.90
2018-05-23T23:39:48.289Z,99.90
2018-05-23T23:43:51.530Z,99.90
2018-05-23T23:47:54.509Z,99.90
2018-05-23T23:51:57.761Z,99.90
2018-05-23T23:56:01.489Z,99.90
